Terminal Aerodrome Forecast
Issued by NWS

Home | Current Version | Previous Version | Text Only | Print | Product List | Glossary On
Versions: 1 2 3 4 5 6 7 8 9 10 11 12 13 14
000
FTUS42 KGSP 232335
TAFAND
TAF
KAND 232335Z 2400/2424 12005KT P6SM SCT045
     FM240500 08004KT P6SM BKN050
     FM241100 09004KT P6SM BKN025
     FM241700 15005KT P6SM SCT025
     FM241900 17005KT P6SM SCT050=

USA.gov is the U.S. government's official web portal to all federal, state and local government web resources and services.